Time;durP1;ratioP1;P1;durP2;ratioP2;P2;SDS_P1;SDS_P2;PMS_P1;PMS_P2;Temp;Humidity;BMP_temperature;BMP_pressure;BME280_temperature;BME280_humidity;BME280_pressure;Samples;Min_cycle;Max_cycle;Signal;HPM_P1;HPM_P2
2021/09/17 00:01:43;;;;;;;41.58;12.75;;;;;;;9.99;65.17;100388.22;1770578;80;21315;-77
2021/09/17 00:04:49;;;;;;;40.12;12.20;;;;;;;9.96;65.27;100390.77;1765884;80;21867;-77
2021/09/17 00:07:55;;;;;;;46.33;13.15;;;;;;;9.91;65.29;100382.73;1763876;80;21176;-77
2021/09/17 00:11:02;;;;;;;31.97;12.63;;;;;;;9.85;65.55;100383.42;1757502;80;21206;-78
2021/09/17 00:14:08;;;;;;;30.55;13.13;;;;;;;9.78;66.03;100387.33;1727628;82;21216;-78
2021/09/17 00:17:15;;;;;;;41.08;12.68;;;;;;;9.70;66.30;100391.44;1735677;82;21197;-78
2021/09/17 00:20:21;;;;;;;36.28;14.40;;;;;;;9.64;66.42;100387.48;1756994;80;21343;-78
2021/09/17 00:23:27;;;;;;;59.50;19.82;;;;;;;9.58;66.47;100392.78;1762883;80;21241;-76
2021/09/17 00:26:34;;;;;;;54.08;18.27;;;;;;;9.51;66.48;100386.30;1758986;80;21213;-76
2021/09/17 00:29:40;;;;;;;46.65;18.32;;;;;;;9.43;66.73;100389.84;1731958;82;22576;-77
2021/09/17 00:32:45;;;;;;;34.67;13.72;;;;;;;9.36;66.93;100392.41;1762037;80;21859;-77
2021/09/17 00:35:53;;;;;;;40.67;15.35;;;;;;;9.29;67.20;100383.16;1737095;82;21224;-77
2021/09/17 00:38:59;;;;;;;40.90;13.38;;;;;;;9.24;67.29;100382.80;1759630;81;22564;-77
2021/09/17 00:42:05;;;;;;;37.78;13.90;;;;;;;9.18;67.31;100376.66;1803035;79;21370;-77
2021/09/17 00:45:13;;;;;;;27.60;12.55;;;;;;;9.14;67.38;100374.75;1798026;79;21153;-77
2021/09/17 00:48:19;;;;;;;27.10;12.10;;;;;;;9.11;67.50;100374.22;1801022;79;21180;-77
2021/09/17 00:51:25;;;;;;;29.40;12.03;;;;;;;9.07;67.50;100372.84;1800562;79;22613;-77
2021/09/17 00:54:34;;;;;;;25.75;11.90;;;;;;;9.06;68.20;100371.14;1803530;79;21224;-77
2021/09/17 00:57:37;;;;;;;27.90;11.10;;;;;;;9.09;68.64;100371.67;1796007;79;21902;-77
2021/09/17 01:00:43;;;;;;;26.77;12.40;;;;;;;9.14;69.65;100367.94;1761904;80;21220;-76
2021/09/17 01:03:49;;;;;;;26.40;11.75;;;;;;;9.19;69.41;100367.44;1737863;82;21822;-77
2021/09/17 01:06:55;;;;;;;28.85;11.43;;;;;;;9.20;68.65;100367.77;1801761;79;21201;-77
2021/09/17 01:10:00;;;;;;;27.25;11.65;;;;;;;9.20;68.52;100367.77;1764429;81;21732;-77
2021/09/17 01:13:06;;;;;;;25.35;11.68;;;;;;;9.20;68.03;100370.50;1757088;80;21318;-77
2021/09/17 01:16:13;;;;;;;27.02;11.18;;;;;;;9.16;67.91;100362.30;1763042;80;21237;-77
2021/09/17 01:19:20;;;;;;;19.67;11.08;;;;;;;9.14;68.30;100350.70;1792786;79;21810;-77
2021/09/17 01:22:28;;;;;;;28.35;11.88;;;;;;;9.15;68.38;100352.41;1764585;80;21331;-77
2021/09/17 01:25:36;;;;;;;24.32;11.57;;;;;;;9.15;68.72;100354.63;1738244;82;21205;-77
2021/09/17 01:28:41;;;;;;;27.85;12.07;;;;;;;9.17;68.59;100350.36;1733517;82;21940;-77
2021/09/17 01:31:46;;;;;;;27.65;10.98;;;;;;;9.13;68.44;100347.12;1734677;82;21193;-77
2021/09/17 01:34:53;;;;;;;22.25;11.35;;;;;;;9.11;68.34;100346.42;1762559;80;21271;-77
2021/09/17 01:37:59;;;;;;;29.75;11.20;;;;;;;9.12;68.68;100347.27;1762099;80;21213;-77
2021/09/17 01:41:06;;;;;;;22.40;10.50;;;;;;;9.13;68.64;100343.03;1758118;80;21646;-77
2021/09/17 01:44:12;;;;;;;30.95;11.83;;;;;;;9.11;68.37;100336.88;1762814;80;21335;-77
2021/09/17 01:47:18;;;;;;;29.75;10.32;;;;;;;9.10;68.62;100327.50;1797476;79;21323;-77
2021/09/17 01:50:25;;;;;;;22.42;9.53;;;;;;;9.09;68.94;100325.28;1802597;79;21173;-77
2021/09/17 01:53:34;;;;;;;26.35;10.03;;;;;;;9.15;69.34;100322.39;1795616;79;21323;-77
2021/09/17 01:56:39;;;;;;;36.33;11.25;;;;;;;9.21;69.30;100321.72;1798160;79;21383;-77
2021/09/17 01:59:45;;;;;;;39.40;10.65;;;;;;;9.27;69.42;100321.06;1761481;80;21328;-77
2021/09/17 02:02:50;;;;;;;26.20;10.08;;;;;;;9.31;68.89;100330.60;1763154;80;21260;-77
2021/09/17 02:05:55;;;;;;;28.90;11.40;;;;;;;9.30;68.39;100327.53;1728282;82;21331;-78
2021/09/17 02:09:02;;;;;;;33.20;10.72;;;;;;;9.28;68.33;100327.38;1768112;80;22551;-78
2021/09/17 02:12:09;;;;;;;36.48;11.40;;;;;;;9.23;67.99;100327.88;1761315;81;21189;-77
2021/09/17 02:15:15;;;;;;;25.43;11.65;;;;;;;9.20;68.13;100329.56;1796772;79;21275;-77
2021/09/17 02:18:20;;;;;;;25.43;11.05;;;;;;;9.15;68.23;100323.25;1762496;80;21360;-77
2021/09/17 02:21:26;;;;;;;27.45;10.35;;;;;;;9.09;68.41;100315.73;1765652;80;21343;-78
2021/09/17 02:24:32;;;;;;;21.17;9.83;;;;;;;9.03;68.45;100317.74;1729645;83;21949;-78
2021/09/17 02:27:37;;;;;;;25.17;10.65;;;;;;;8.99;69.08;100314.14;1765013;81;21331;-78
2021/09/17 02:30:42;;;;;;;22.42;10.08;;;;;;;8.95;68.59;100317.23;1762581;81;21323;-78
2021/09/17 02:33:48;;;;;;;28.62;10.70;;;;;;;8.89;68.25;100311.08;1731236;83;21300;-77
2021/09/17 02:36:54;;;;;;;38.23;11.15;;;;;;;8.86;68.49;100313.27;1762591;80;21331;-77
2021/09/17 02:40:01;;;;;;;20.82;9.80;;;;;;;8.84;68.53;100307.96;1728866;82;21205;-77
2021/09/17 02:43:08;;;;;;;27.90;10.85;;;;;;;8.81;68.53;100308.31;1753401;81;21221;-78
2021/09/17 02:46:14;;;;;;;26.52;10.23;;;;;;;8.80;68.82;100313.44;1760529;80;21320;-78
2021/09/17 02:49:22;;;;;;;21.68;9.88;;;;;;;8.76;69.05;100312.05;1759100;80;21324;-77
2021/09/17 02:52:29;;;;;;;22.00;10.28;;;;;;;8.73;69.19;100311.00;1761768;80;21212;-77
2021/09/17 02:55:35;;;;;;;21.15;10.80;;;;;;;8.71;69.31;100302.14;1765155;80;21211;-78
2021/09/17 02:58:41;;;;;;;21.90;10.72;;;;;;;8.71;69.27;100308.96;1774060;81;21838;-78
2021/09/17 03:01:47;;;;;;;22.90;10.10;;;;;;;8.70;69.31;100308.11;1794152;79;21306;-78
2021/09/17 03:04:52;;;;;;;26.15;10.28;;;;;;;8.68;69.48;100309.28;1764551;81;22197;-77
2021/09/17 03:07:58;;;;;;;30.20;10.80;;;;;;;8.63;69.62;100304.83;1761676;80;21940;-78
2021/09/17 03:11:04;;;;;;;20.20;10.00;;;;;;;8.61;69.57;100308.21;1725249;82;21366;-78
2021/09/17 03:14:11;;;;;;;33.55;11.18;;;;;;;8.55;69.32;100306.15;1798145;79;21161;-77
2021/09/17 03:17:18;;;;;;;25.12;11.68;;;;;;;8.50;69.29;100303.06;1804977;78;22066;-76
2021/09/17 03:20:23;;;;;;;29.10;11.03;;;;;;;8.47;69.51;100307.46;1770114;80;21370;-76
2021/09/17 03:23:30;;;;;;;29.82;10.30;;;;;;;8.44;69.76;100308.66;1799448;79;21208;-76
2021/09/17 03:26:36;;;;;;;27.93;10.58;;;;;;;8.41;69.83;100307.61;1797738;78;21196;-76
2021/09/17 03:29:42;;;;;;;34.90;10.48;;;;;;;8.39;70.40;100302.33;1806764;79;21320;-76
2021/09/17 03:32:47;;;;;;;20.32;9.73;;;;;;;8.39;70.70;100295.52;1799503;78;21365;-76
2021/09/17 03:35:53;;;;;;;29.02;10.58;;;;;;;8.41;70.49;100303.02;1805915;79;21165;-77
2021/09/17 03:38:58;;;;;;;30.57;10.68;;;;;;;8.45;71.43;100301.67;1793964;79;21867;-76
2021/09/17 03:42:04;;;;;;;29.52;9.95;;;;;;;8.53;71.42;100294.56;1791645;78;21304;-76
2021/09/17 03:45:10;;;;;;;43.13;11.45;;;;;;;8.56;70.68;100299.67;1790725;79;22559;-76
2021/09/17 03:48:17;;;;;;;31.82;11.68;;;;;;;8.58;70.73;100301.23;1789791;79;21776;-77
2021/09/17 03:51:24;;;;;;;50.48;14.40;;;;;;;8.64;70.60;100300.56;1789989;79;21234;-77
2021/09/17 03:54:28;;;;;;;42.35;14.53;;;;;;;8.66;70.20;100298.55;1800482;79;21276;-77
2021/09/17 03:57:36;;;;;;;59.03;16.67;;;;;;;8.68;70.71;100302.46;1782030;79;21748;-77
2021/09/17 04:00:41;;;;;;;43.25;13.50;;;;;;;8.74;70.55;100299.06;1790673;79;21748;-77
2021/09/17 04:03:47;;;;;;;48.80;13.75;;;;;;;8.79;70.61;100295.84;1802776;79;21228;-77
2021/09/17 04:06:53;;;;;;;35.28;12.55;;;;;;;8.87;70.75;100295.88;1790417;79;21310;-77
2021/09/17 04:09:58;;;;;;;31.62;13.50;;;;;;;8.94;70.93;100290.97;1736955;82;21282;-77
2021/09/17 04:13:04;;;;;;;33.78;12.90;;;;;;;9.04;71.23;100289.98;1745965;80;21142;-77
2021/09/17 04:16:10;;;;;;;45.90;11.75;;;;;;;9.19;72.27;100293.23;1794872;79;21146;-77
2021/09/17 04:19:17;;;;;;;30.97;11.38;;;;;;;9.39;74.55;100282.84;1768350;80;21898;-77
2021/09/17 04:22:21;;;;;;;38.88;12.03;;;;;;;9.61;74.75;100291.41;1779423;79;21240;-77
2021/09/17 04:25:28;;;;;;;58.23;11.95;;;;;;;9.81;75.29;100281.83;1769217;80;21216;-77
2021/09/17 04:28:34;;;;;;;44.15;11.35;;;;;;;10.03;75.48;100283.01;1771125;80;21859;-77
2021/09/17 04:31:39;;;;;;;41.98;11.25;;;;;;;10.26;75.28;100275.45;1778095;79;21203;-77
2021/09/17 04:34:44;;;;;;;27.45;11.88;;;;;;;10.51;74.87;100274.36;1802307;79;21200;-77
2021/09/17 04:37:59;;;;;;;43.98;11.68;;;;;;;10.74;74.48;100278.02;1797734;79;21280;-77
2021/09/17 04:41:02;;;;;;;29.57;10.25;;;;;;;10.98;73.86;100278.41;1803275;78;21856;-77
2021/09/17 04:44:07;;;;;;;22.95;9.90;;;;;;;11.24;73.02;100277.20;1780177;79;21323;-77
2021/09/17 04:47:13;;;;;;;23.50;9.73;;;;;;;11.47;70.92;100274.48;1775312;79;21236;-77
2021/09/17 04:50:19;;;;;;;22.58;9.58;;;;;;;11.70;69.56;100271.73;1775854;78;21165;-77
2021/09/17 04:53:26;;;;;;;25.27;10.95;;;;;;;11.92;67.82;100272.25;1789344;79;21303;-76
2021/09/17 04:56:33;;;;;;;21.48;8.55;;;;;;;12.11;66.91;100274.13;1766947;79;21258;-78
2021/09/17 04:59:45;;;;;;;21.60;8.37;;;;;;;12.30;65.79;100272.20;1796613;78;21196;-76
2021/09/17 05:02:56;;;;;;;17.70;8.10;;;;;;;12.46;64.20;100268.41;1731282;79;21435;-76
2021/09/17 05:06:05;;;;;;;27.40;8.70;;;;;;;12.61;62.95;100265.16;1752622;79;21192;-76
2021/09/17 05:09:12;;;;;;;21.70;8.93;;;;;;;12.77;61.64;100267.68;1790307;78;21282;-76
2021/09/17 05:12:19;;;;;;;20.90;9.03;;;;;;;12.92;60.56;100271.77;1777523;78;21188;-77
2021/09/17 05:15:24;;;;;;;32.30;10.80;;;;;;;13.07;59.69;100273.63;1775151;79;21286;-77
2021/09/17 05:18:31;;;;;;;32.23;12.33;;;;;;;13.23;58.87;100281.67;1777993;79;21158;-76
2021/09/17 05:21:36;;;;;;;39.48;15.53;;;;;;;13.41;57.67;100280.71;1772354;79;22608;-76
2021/09/17 05:24:44;;;;;;;41.30;16.97;;;;;;;13.57;56.82;100278.22;1783864;78;21608;-78
2021/09/17 05:27:50;;;;;;;44.20;15.98;;;;;;;13.76;56.54;100283.05;1783712;78;21202;-78
2021/09/17 05:31:00;;;;;;;64.58;24.77;;;;;;;13.94;56.07;100277.08;1778213;79;21239;-79
2021/09/17 05:34:07;;;;;;;62.17;24.47;;;;;;;14.12;55.46;100277.11;1784560;78;21501;-78
2021/09/17 05:37:13;;;;;;;58.35;24.32;;;;;;;14.28;55.36;100276.80;1786199;78;21179;-78
2021/09/17 05:40:22;;;;;;;71.77;23.40;;;;;;;14.43;54.93;100273.92;1744827;78;21168;-77
2021/09/17 05:43:29;;;;;;;74.22;25.25;;;;;;;14.62;54.16;100275.13;1763565;78;22420;-79
2021/09/17 05:46:36;;;;;;;70.30;26.07;;;;;;;14.81;52.78;100271.08;1783076;79;21236;-83
2021/09/17 05:49:44;;;;;;;63.78;25.62;;;;;;;14.98;52.19;100272.97;1784679;79;21189;-81
2021/09/17 05:52:50;;;;;;;66.85;23.22;;;;;;;15.17;51.30;100276.00;1780227;79;21835;-78
2021/09/17 05:55:57;;;;;;;58.23;23.52;;;;;;;15.31;51.64;100276.36;1741203;80;22016;-77
2021/09/17 05:59:03;;;;;;;;;;;;;;;15.51;51.50;100276.39;1741513;80;21455;-82
2021/09/17 06:02:08;;;;;;;54.63;20.50;;;;;;;15.69;51.34;100271.69;1747316;80;20246;-82
2021/09/17 06:05:15;;;;;;;53.87;19.82;;;;;;;15.87;51.16;100278.81;1745260;80;22073;-84
2021/09/17 06:08:25;;;;;;;39.83;15.98;;;;;;;16.06;50.99;100277.11;1748166;80;21192;-81
2021/09/17 06:11:32;;;;;;;48.05;17.70;;;;;;;16.25;49.44;100276.24;1749133;80;21854;-82
2021/09/17 06:14:43;;;;;;;38.23;16.37;;;;;;;16.44;48.67;100280.03;1744680;80;21933;-85
2021/09/17 06:17:53;;;;;;;38.48;14.18;;;;;;;16.61;48.51;100274.37;1747481;80;21193;-75
2021/09/17 06:20:59;;;;;;;38.00;14.80;;;;;;;16.82;46.94;100276.56;1743175;80;21919;-75
2021/09/17 06:24:05;;;;;;;32.90;13.88;;;;;;;17.02;46.83;100277.86;1752605;80;21381;-76
2021/09/17 06:27:11;;;;;;;38.80;15.72;;;;;;;17.21;46.11;100280.21;1753089;80;21193;-78
2021/09/17 06:30:18;;;;;;;37.33;14.95;;;;;;;17.38;44.73;100280.02;1742361;80;21287;-77
2021/09/17 06:33:24;;;;;;;32.33;12.85;;;;;;;17.55;45.06;100280.33;1741280;80;21425;-75
2021/09/17 06:36:29;;;;;;;28.05;13.08;;;;;;;17.73;44.83;100280.45;1744314;80;21321;-77
2021/09/17 06:39:35;;;;;;;27.77;13.20;;;;;;;17.92;44.38;100284.13;1738992;80;21475;-76
2021/09/17 06:42:41;;;;;;;37.53;11.97;;;;;;;18.09;44.39;100277.52;1748967;80;21325;-76
2021/09/17 06:45:47;;;;;;;32.25;12.10;;;;;;;18.25;43.46;100271.39;1755528;80;21295;-76
2021/09/17 06:48:52;;;;;;;24.65;9.85;;;;;;;18.42;42.50;100266.12;1740620;80;21749;-76
2021/09/17 06:51:57;;;;;;;28.87;8.30;;;;;;;18.55;42.29;100263.76;1739773;80;21312;-74
2021/09/17 06:55:03;;;;;;;20.62;8.45;;;;;;;18.69;41.18;100257.03;1744534;80;21284;-76
2021/09/17 06:58:11;;;;;;;23.73;8.45;;;;;;;18.82;40.86;100257.39;1733800;80;21183;-76
2021/09/17 07:01:19;;;;;;;22.90;6.20;;;;;;;18.96;40.29;100249.75;1740704;80;21386;-76
2021/09/17 07:04:24;;;;;;;21.95;4.78;;;;;;;19.07;39.31;100251.77;1740743;80;21323;-76
2021/09/17 07:07:29;;;;;;;11.50;5.12;;;;;;;19.18;38.80;100250.96;1735322;80;21226;-76
2021/09/17 07:10:34;;;;;;;11.48;5.05;;;;;;;19.29;37.56;100253.47;1754909;80;21267;-85
2021/09/17 07:13:41;;;;;;;13.95;5.00;;;;;;;19.36;37.01;100247.30;1748363;80;21176;-77
2021/09/17 07:16:49;;;;;;;21.97;5.47;;;;;;;19.46;37.61;100250.34;1749964;80;21203;-76
2021/09/17 07:19:55;;;;;;;25.65;5.20;;;;;;;19.55;36.82;100250.86;1751691;80;21216;-77
2021/09/17 07:23:00;;;;;;;11.48;4.40;;;;;;;19.64;36.75;100247.54;1761496;80;21734;-77
2021/09/17 07:26:05;;;;;;;6.05;3.42;;;;;;;19.76;36.23;100242.55;1741518;80;21741;-76
2021/09/17 07:29:24;;;;;;;10.65;4.00;;;;;;;19.81;36.42;100240.77;1762584;80;21285;-78
2021/09/17 07:32:36;;;;;;;10.55;4.15;;;;;;;19.91;36.18;100236.02;1745984;79;21715;-83
2021/09/17 07:35:43;;;;;;;14.47;4.20;;;;;;;20.04;35.89;100235.80;1746758;80;21864;-80
2021/09/17 07:38:49;;;;;;;14.10;3.70;;;;;;;20.17;35.67;100234.15;1745211;80;21216;-82
2021/09/17 07:41:54;;;;;;;13.83;4.20;;;;;;;20.28;35.47;100233.00;1739297;80;21709;-82
2021/09/17 07:44:59;;;;;;;12.25;4.20;;;;;;;20.35;35.09;100233.73;1740385;80;21338;-80
2021/09/17 07:48:05;;;;;;;14.58;3.85;;;;;;;20.43;35.35;100236.16;1746356;80;21302;-82
2021/09/17 07:51:10;;;;;;;14.35;4.28;;;;;;;20.52;35.54;100232.50;1747105;80;22355;-82
2021/09/17 07:54:16;;;;;;;15.58;4.75;;;;;;;20.60;35.30;100228.77;1738815;80;21287;-83
2021/09/17 07:57:21;;;;;;;12.82;4.75;;;;;;;20.59;34.52;100217.91;1747451;80;21617;-82
2021/09/17 08:00:26;;;;;;;9.60;4.28;;;;;;;20.60;35.10;100224.61;1747837;80;21294;-83
2021/09/17 08:03:32;;;;;;;17.90;4.92;;;;;;;20.64;34.79;100219.41;1746445;80;21318;-81
2021/09/17 08:06:38;;;;;;;14.33;4.80;;;;;;;20.68;33.91;100217.29;1736996;80;21550;-81
2021/09/17 08:09:44;;;;;;;23.38;6.47;;;;;;;20.63;33.96;100218.57;1744609;80;21232;-81
2021/09/17 08:12:50;;;;;;;12.35;6.65;;;;;;;20.65;34.36;100216.92;1745010;80;21959;-83
2021/09/17 08:15:55;;;;;;;16.00;5.33;;;;;;;20.73;34.32;100212.93;1737076;80;21579;-81
2021/09/17 08:19:01;;;;;;;12.37;3.92;;;;;;;20.78;34.34;100214.42;1750167;80;21293;-82
2021/09/17 08:22:07;;;;;;;17.90;5.05;;;;;;;20.82;34.40;100210.06;1767299;80;21302;-83
2021/09/17 08:25:17;;;;;;;14.43;4.50;;;;;;;20.83;34.51;100204.80;1748377;80;21638;-83
2021/09/17 08:28:22;;;;;;;13.03;4.08;;;;;;;20.89;34.39;100199.67;1757157;80;22286;-81
2021/09/17 08:31:29;;;;;;;16.40;4.03;;;;;;;20.97;34.85;100195.08;1746395;80;21330;-85
2021/09/17 08:34:36;;;;;;;16.00;4.50;;;;;;;21.04;34.35;100195.80;1744249;80;21622;-86
2021/09/17 08:37:41;;;;;;;9.25;3.72;;;;;;;21.10;34.80;100198.97;1744985;80;21899;-85
2021/09/17 08:40:47;;;;;;;9.25;4.10;;;;;;;21.20;34.25;100189.97;1745857;80;21315;-83
2021/09/17 08:43:54;;;;;;;21.50;4.58;;;;;;;21.23;33.89;100189.48;1747653;80;21782;-82
2021/09/17 08:47:11;;;;;;;10.13;4.60;;;;;;;21.23;33.63;100186.70;1740657;80;21168;-84
2021/09/17 08:50:19;;;;;;;13.35;4.12;;;;;;;21.24;33.90;100187.55;1749866;80;21333;-87
2021/09/17 08:53:26;;;;;;;13.50;3.40;;;;;;;21.30;34.59;100183.75;1747197;80;21793;-84
2021/09/17 08:56:32;;;;;;;26.82;5.28;;;;;;;21.37;34.26;100184.49;1745232;80;22140;-85
2021/09/17 08:59:39;;;;;;;14.55;3.75;;;;;;;21.39;33.92;100179.50;1745881;80;21559;-86
2021/09/17 09:02:47;;;;;;;16.60;3.62;;;;;;;21.43;34.36;100182.92;1749420;80;21308;-85
2021/09/17 09:05:56;;;;;;;18.42;4.12;;;;;;;21.46;33.40;100171.86;1731431;80;21319;-84
2021/09/17 09:09:04;;;;;;;10.65;4.00;;;;;;;21.44;32.71;100176.81;1749605;80;21732;-85
2021/09/17 09:12:11;;;;;;;8.75;3.70;;;;;;;21.42;32.70;100168.73;1748123;80;21537;-85
2021/09/17 09:15:31;;;;;;;9.18;3.27;;;;;;;21.38;32.46;100166.70;1731073;81;21306;-85
2021/09/17 09:18:37;;;;;;;13.03;3.95;;;;;;;21.29;32.38;100161.21;1740873;80;21477;-84
2021/09/17 09:21:41;;;;;;;12.30;3.60;;;;;;;21.22;32.43;100156.34;1706187;80;21946;-77
2021/09/17 09:24:49;;;;;;;8.93;3.87;;;;;;;21.18;32.86;100151.30;1744944;80;21357;-77
2021/09/17 09:27:55;;;;;;;7.78;3.30;;;;;;;21.26;33.01;100145.02;1692665;83;21307;-76
2021/09/17 09:31:01;;;;;;;23.95;3.75;;;;;;;21.32;33.73;100146.84;1700378;83;21500;-78
2021/09/17 09:34:06;;;;;;;10.72;3.87;;;;;;;21.41;34.24;100141.17;1696276;83;21174;-75
2021/09/17 09:37:13;;;;;;;11.35;3.75;;;;;;;21.48;33.01;100144.61;1695703;83;21358;-76
2021/09/17 09:40:21;;;;;;;14.78;3.75;;;;;;;21.51;32.91;100146.06;1696706;82;21331;-83
2021/09/17 09:43:39;;;;;;;9.70;3.52;;;;;;;21.50;33.02;100142.95;1700597;82;21174;-85
2021/09/17 09:46:47;;;;;;;12.82;4.10;;;;;;;21.37;32.64;100134.41;1696108;83;21398;-84
2021/09/17 09:49:52;;;;;;;11.55;3.80;;;;;;;21.37;32.64;100134.41;1695143;83;21303;-77
2021/09/17 09:53:03;;;;;;;20.43;4.17;;;;;;;21.38;33.19;100134.70;1696062;81;21325;-75
2021/09/17 09:56:08;;;;;;;19.35;3.77;;;;;;;21.40;32.48;100133.34;1703185;81;21315;-76
2021/09/17 09:59:15;;;;;;;14.78;4.10;;;;;;;21.45;32.94;100132.59;1689932;83;21275;-76
2021/09/17 10:02:23;;;;;;;13.90;3.35;;;;;;;21.49;33.38;100129.59;1688691;82;21173;-76
2021/09/17 10:05:30;;;;;;;16.35;4.10;;;;;;;21.55;33.20;100129.13;1679858;82;21384;-76
2021/09/17 10:08:35;;;;;;;6.47;3.08;;;;;;;21.60;33.53;100120.89;1691379;82;21210;-76
2021/09/17 10:11:41;;;;;;;7.95;3.22;;;;;;;21.68;33.38;100114.87;1688471;82;21341;-76
2021/09/17 10:14:53;;;;;;;7.25;3.27;;;;;;;21.78;33.97;100117.81;1685590;82;21767;-77
2021/09/17 10:17:58;;;;;;;5.72;2.70;;;;;;;21.87;33.51;100112.11;1687481;82;21342;-75
2021/09/17 10:21:06;;;;;;;18.40;4.78;;;;;;;21.93;32.19;100108.88;1686518;82;21193;-77
2021/09/17 10:24:38;;;;;;;11.97;3.55;;;;;;;21.94;32.96;100107.77;1688500;83;21179;-76
2021/09/17 10:27:46;;;;;;;8.95;3.40;;;;;;;21.97;32.29;100100.28;1692058;81;21473;-78
2021/09/17 10:30:52;;;;;;;4.30;2.75;;;;;;;21.98;32.44;100099.20;1704411;82;21214;-77
2021/09/17 10:33:58;;;;;;;7.60;3.27;;;;;;;22.01;32.15;100097.28;1673917;83;22229;-76
2021/09/17 10:37:05;;;;;;;9.13;2.80;;;;;;;21.98;31.66;100097.81;1671381;83;21695;-78
2021/09/17 10:40:14;;;;;;;11.35;3.58;;;;;;;21.96;31.91;100090.25;1682209;82;21513;-77
2021/09/17 10:43:47;;;;;;;13.65;3.27;;;;;;;21.94;31.53;100091.91;1684864;82;21170;-77
2021/09/17 10:46:54;;;;;;;8.10;3.02;;;;;;;21.95;31.58;100077.43;1655552;83;21226;-77
2021/09/17 10:50:12;;;;;;;10.20;3.75;;;;;;;21.99;32.75;100077.77;1676942;82;21300;-76
2021/09/17 10:53:19;;;;;;;10.98;3.37;;;;;;;22.03;32.79;100078.39;1663131;82;21174;-76
2021/09/17 10:56:25;;;;;;;7.05;3.33;;;;;;;22.06;32.10;100066.71;1664289;82;22151;-77
2021/09/17 10:59:31;;;;;;;9.75;3.60;;;;;;;22.06;32.08;100063.92;1685068;82;21621;-76
2021/09/17 11:02:48;;;;;;;8.23;3.17;;;;;;;22.04;31.90;100057.78;1683054;82;21201;-77
2021/09/17 11:05:54;;;;;;;11.22;3.87;;;;;;;22.06;32.30;100059.75;1682212;81;21350;-78
2021/09/17 11:09:17;;;;;;;9.10;4.30;;;;;;;22.13;32.65;100063.78;1697951;82;21698;-76
2021/09/17 11:12:32;;;;;;;11.93;3.95;;;;;;;22.19;32.39;100056.62;1691735;82;21738;-87
2021/09/17 11:15:53;;;;;;;8.93;3.90;;;;;;;22.27;32.10;100041.41;1841722;76;22227;-77
2021/09/17 11:19:11;;;;;;;11.83;3.30;;;;;;;22.26;31.71;100052.27;1815586;77;21423;-77
2021/09/17 11:22:21;;;;;;;12.65;3.70;;;;;;;22.28;31.59;100046.42;1760752;80;21392;-77
2021/09/17 11:25:42;;;;;;;16.75;3.45;;;;;;;22.24;31.62;100047.48;1755215;80;21235;-77
2021/09/17 11:28:48;;;;;;;12.25;3.47;;;;;;;22.27;31.98;100037.23;1762056;80;21689;-77
2021/09/17 11:32:01;;;;;;;8.10;2.95;;;;;;;22.30;31.64;100040.89;1763073;79;21188;-77
2021/09/17 11:35:16;;;;;;;15.32;3.20;;;;;;;22.35;31.10;100033.16;1759965;79;21208;-77
2021/09/17 11:38:21;;;;;;;11.05;2.98;;;;;;;22.39;31.20;100035.68;1764138;79;21664;-77
2021/09/17 11:41:26;;;;;;;9.70;3.35;;;;;;;22.45;31.04;100043.02;1745998;81;21782;-78
2021/09/17 11:44:56;;;;;;;16.60;4.22;;;;;;;22.49;30.80;100030.77;1757081;80;21274;-77
2021/09/17 11:48:08;;;;;;;10.18;3.52;;;;;;;22.51;31.17;100030.81;1755957;80;21165;-78
2021/09/17 11:51:19;;;;;;;4.47;2.92;;;;;;;22.49;31.19;100027.46;1742076;80;21532;-78
2021/09/17 11:54:27;;;;;;;10.58;3.20;;;;;;;22.47;31.50;100018.50;1766189;80;21306;-78
2021/09/17 11:57:40;;;;;;;7.65;3.60;;;;;;;22.43;31.51;100020.13;1759846;80;21330;-78
2021/09/17 12:00:46;;;;;;;10.30;3.70;;;;;;;22.36;31.43;100019.50;1754542;80;21263;-79
2021/09/17 12:03:52;;;;;;;7.67;3.08;;;;;;;22.28;31.62;100012.99;1742630;81;21176;-79
2021/09/17 12:06:59;;;;;;;13.75;4.30;;;;;;;22.22;31.70;100010.70;1747724;81;21240;-79
2021/09/17 12:10:05;;;;;;;13.50;3.62;;;;;;;22.19;31.89;100001.46;1760906;80;21315;-79
2021/09/17 12:13:18;;;;;;;12.47;3.70;;;;;;;22.16;31.88;99998.66;1762633;80;21306;-79
2021/09/17 12:16:23;;;;;;;13.22;3.65;;;;;;;22.16;32.08;100002.84;1753324;80;21197;-78
2021/09/17 12:19:30;;;;;;;17.12;3.22;;;;;;;22.16;32.15;100002.84;1746297;81;21307;-79
2021/09/17 12:22:51;;;;;;;14.60;3.33;;;;;;;22.17;32.08;100004.52;1744581;80;21303;-78
2021/09/17 12:25:57;;;;;;;15.00;3.40;;;;;;;22.18;32.11;99990.04;1768691;79;21338;-78
2021/09/17 12:29:04;;;;;;;7.30;3.10;;;;;;;22.19;32.09;99991.72;1754026;79;21311;-79
2021/09/17 12:32:23;;;;;;;10.88;3.25;;;;;;;22.15;31.35;99980.80;1753260;80;21184;-78
2021/09/17 12:35:31;;;;;;;19.62;4.10;;;;;;;22.09;31.79;99986.83;1731023;81;21226;-78
2021/09/17 12:38:37;;;;;;;9.30;3.27;;;;;;;22.07;32.27;99989.05;1713127;81;21645;-78
2021/09/17 12:41:44;;;;;;;13.83;3.30;;;;;;;22.06;32.82;99987.34;1707662;82;21220;-78
2021/09/17 12:44:53;;;;;;;14.78;3.60;;;;;;;22.10;32.57;99993.24;1738526;81;21264;-77
2021/09/17 12:48:02;;;;;;;11.15;3.15;;;;;;;22.10;32.53;99986.28;1728073;81;21203;-78
2021/09/17 12:51:08;;;;;;;8.03;3.27;;;;;;;22.09;32.00;99982.66;1739346;80;21141;-78
2021/09/17 12:54:22;;;;;;;29.10;4.08;;;;;;;22.08;31.65;99969.84;1739027;81;21157;-78
2021/09/17 12:57:29;;;;;;;14.47;3.62;;;;;;;22.08;32.11;99974.02;1738495;81;21262;-78
2021/09/17 13:00:34;;;;;;;6.10;3.10;;;;;;;22.07;32.65;99972.34;1730961;81;21280;-78
2021/09/17 13:03:40;;;;;;;22.17;3.67;;;;;;;22.07;32.78;99963.15;1739609;81;21365;-79
2021/09/17 13:06:48;;;;;;;7.15;3.45;;;;;;;22.04;32.69;99952.52;1731834;81;21265;-79
2021/09/17 13:09:54;;;;;;;7.78;3.35;;;;;;;22.01;32.58;99948.85;1757745;81;21287;-79
2021/09/17 13:12:52;;;;;;;12.03;3.50;;;;;;;21.98;32.70;99948.84;1744940;81;21161;-78
2021/09/17 13:15:58;;;;;;;11.55;3.70;;;;;;;21.97;33.03;99944.34;1743499;81;21256;-79
2021/09/17 13:19:03;;;;;;;18.15;3.77;;;;;;;21.94;32.68;99937.37;1726923;81;21280;-78
2021/09/17 13:22:11;;;;;;;9.70;3.10;;;;;;;21.93;32.81;99945.99;1790016;79;21247;-78
2021/09/17 13:25:17;;;;;;;10.30;3.42;;;;;;;21.92;32.77;99942.89;1791159;79;21157;-78
2021/09/17 13:28:23;;;;;;;10.82;3.70;;;;;;;21.92;32.89;99941.50;1755854;81;21887;-79
2021/09/17 13:31:29;;;;;;;12.90;3.62;;;;;;;21.91;32.40;99944.00;1785324;79;21165;-78
2021/09/17 13:34:34;;;;;;;11.70;3.55;;;;;;;21.86;32.57;99930.02;1728559;81;21930;-77
2021/09/17 13:37:40;;;;;;;13.10;3.67;;;;;;;21.84;32.81;99936.41;1786687;79;21212;-78
2021/09/17 13:40:46;;;;;;;14.98;3.25;;;;;;;21.83;32.79;99936.09;1786446;79;21854;-77
2021/09/17 13:43:52;;;;;;;10.30;3.60;;;;;;;21.77;32.66;99934.36;1783305;79;21191;-77
2021/09/17 13:46:58;;;;;;;14.40;3.70;;;;;;;21.72;32.90;99928.73;1789468;79;22566;-77
2021/09/17 13:50:03;;;;;;;6.95;3.33;;;;;;;21.68;32.92;99922.83;1779929;79;21329;-79
2021/09/17 13:53:09;;;;;;;12.15;3.60;;;;;;;21.66;32.85;99919.48;1777006;79;21289;-78
2021/09/17 13:56:14;;;;;;;19.42;4.08;;;;;;;21.66;32.93;99925.88;1770026;81;21960;-78
2021/09/17 13:59:19;;;;;;;19.90;3.98;;;;;;;21.66;32.95;99921.71;1770071;81;21312;-78
2021/09/17 14:02:27;;;;;;;17.20;4.30;;;;;;;21.66;32.89;99916.14;1768108;81;21415;-78
2021/09/17 14:05:29;;;;;;;15.68;4.15;;;;;;;21.66;32.72;99913.91;1752660;81;21307;-78
2021/09/17 14:08:34;;;;;;;9.43;3.83;;;;;;;21.65;32.84;99913.08;1769502;81;21309;-78
2021/09/17 14:11:40;;;;;;;12.30;3.72;;;;;;;21.65;32.73;99918.64;1768637;81;21195;-78
2021/09/17 14:14:46;;;;;;;14.73;3.72;;;;;;;21.61;32.69;99916.08;1770447;81;21202;-78
2021/09/17 14:17:52;;;;;;;11.75;3.77;;;;;;;21.58;32.89;99917.14;1769991;80;21313;-78
2021/09/17 14:20:58;;;;;;;7.35;3.70;;;;;;;21.52;32.91;99909.28;1771044;81;21721;-78
2021/09/17 14:24:04;;;;;;;26.97;4.95;;;;;;;21.47;32.98;99915.33;1769650;81;21741;-78